sensor_id;sensor_type;location;lat;lon;timestamp;P1;durP1;ratioP1;P2;durP2;ratioP2
18702;SDS011;9481;48.796;9.210;2022-10-15T00:00:36;0.87;;;0.50;;
18702;SDS011;9481;48.796;9.210;2022-10-15T00:03:03;0.30;;;0.30;;
18702;SDS011;9481;48.796;9.210;2022-10-15T00:05:29;0.40;;;0.40;;
18702;SDS011;9481;48.796;9.210;2022-10-15T00:07:55;0.50;;;0.30;;
18702;SDS011;9481;48.796;9.210;2022-10-15T00:10:21;0.40;;;0.40;;
18702;SDS011;9481;48.796;9.210;2022-10-15T00:12:47;0.30;;;0.30;;
18702;SDS011;9481;48.796;9.210;2022-10-15T00:15:13;0.30;;;0.30;;
18702;SDS011;9481;48.796;9.210;2022-10-15T00:17:39;0.30;;;0.30;;
18702;SDS011;9481;48.796;9.210;2022-10-15T00:20:06;0.30;;;0.30;;
18702;SDS011;9481;48.796;9.210;2022-10-15T00:22:34;0.20;;;0.20;;
18702;SDS011;9481;48.796;9.210;2022-10-15T00:25:01;0.60;;;0.40;;
18702;SDS011;9481;48.796;9.210;2022-10-15T00:27:27;0.30;;;0.20;;
18702;SDS011;9481;48.796;9.210;2022-10-15T00:29:53;0.30;;;0.30;;
18702;SDS011;9481;48.796;9.210;2022-10-15T00:32:18;0.20;;;0.20;;
18702;SDS011;9481;48.796;9.210;2022-10-15T00:34:44;0.13;;;0.13;;
18702;SDS011;9481;48.796;9.210;2022-10-15T00:37:10;0.30;;;0.30;;
18702;SDS011;9481;48.796;9.210;2022-10-15T00:39:36;0.40;;;0.20;;
18702;SDS011;9481;48.796;9.210;2022-10-15T00:42:02;0.30;;;0.17;;
18702;SDS011;9481;48.796;9.210;2022-10-15T00:49:43;0.67;;;0.20;;
18702;SDS011;9481;48.796;9.210;2022-10-15T00:52:45;0.40;;;0.20;;
18702;SDS011;9481;48.796;9.210;2022-10-15T00:55:31;0.57;;;0.30;;
18702;SDS011;9481;48.796;9.210;2022-10-15T00:58:07;3.40;;;0.40;;
18702;SDS011;9481;48.796;9.210;2022-10-15T01:00:52;0.87;;;0.50;;
18702;SDS011;9481;48.796;9.210;2022-10-15T01:03:19;1.47;;;0.30;;
18702;SDS011;9481;48.796;9.210;2022-10-15T01:05:46;0.67;;;0.30;;
18702;SDS011;9481;48.796;9.210;2022-10-15T01:08:17;0.93;;;0.40;;
18702;SDS011;9481;48.796;9.210;2022-10-15T01:10:46;0.43;;;0.40;;
18702;SDS011;9481;48.796;9.210;2022-10-15T01:18:37;0.20;;;0.20;;
18702;SDS011;9481;48.796;9.210;2022-10-15T01:21:19;1.30;;;0.10;;
18702;SDS011;9481;48.796;9.210;2022-10-15T01:27:04;0.30;;;0.30;;
18702;SDS011;9481;48.796;9.210;2022-10-15T01:30:03;0.20;;;0.20;;
18702;SDS011;9481;48.796;9.210;2022-10-15T01:33:02;1.20;;;0.20;;
18702;SDS011;9481;48.796;9.210;2022-10-15T01:38:30;0.63;;;0.20;;
18702;SDS011;9481;48.796;9.210;2022-10-15T01:41:08;1.03;;;0.23;;
18702;SDS011;9481;48.796;9.210;2022-10-15T01:43:44;0.50;;;0.20;;
18702;SDS011;9481;48.796;9.210;2022-10-15T01:46:35;0.90;;;0.20;;
18702;SDS011;9481;48.796;9.210;2022-10-15T01:49:12;1.23;;;0.33;;
18702;SDS011;9481;48.796;9.210;2022-10-15T01:51:45;2.77;;;0.20;;
18702;SDS011;9481;48.796;9.210;2022-10-15T01:54:14;0.33;;;0.20;;
18702;SDS011;9481;48.796;9.210;2022-10-15T01:56:43;1.23;;;0.40;;
18702;SDS011;9481;48.796;9.210;2022-10-15T01:59:16;0.87;;;0.40;;
18702;SDS011;9481;48.796;9.210;2022-10-15T02:01:51;1.10;;;0.30;;
18702;SDS011;9481;48.796;9.210;2022-10-15T02:04:24;0.90;;;0.20;;
18702;SDS011;9481;48.796;9.210;2022-10-15T02:06:56;0.20;;;0.20;;
18702;SDS011;9481;48.796;9.210;2022-10-15T02:13:00;0.20;;;0.10;;
18702;SDS011;9481;48.796;9.210;2022-10-15T02:15:45;0.20;;;0.20;;
18702;SDS011;9481;48.796;9.210;2022-10-15T02:18:50;0.93;;;0.33;;
18702;SDS011;9481;48.796;9.210;2022-10-15T02:21:38;1.50;;;0.23;;
18702;SDS011;9481;48.796;9.210;2022-10-15T02:24:34;0.53;;;0.20;;
18702;SDS011;9481;48.796;9.210;2022-10-15T02:27:12;0.47;;;0.20;;
18702;SDS011;9481;48.796;9.210;2022-10-15T02:29:40;2.37;;;0.20;;
18702;SDS011;9481;48.796;9.210;2022-10-15T02:32:09;1.60;;;0.30;;
18702;SDS011;9481;48.796;9.210;2022-10-15T02:34:36;0.30;;;0.30;;
18702;SDS011;9481;48.796;9.210;2022-10-15T02:37:04;1.67;;;0.27;;
18702;SDS011;9481;48.796;9.210;2022-10-15T02:39:32;0.43;;;0.23;;
18702;SDS011;9481;48.796;9.210;2022-10-15T02:41:59;0.10;;;0.10;;
18702;SDS011;9481;48.796;9.210;2022-10-15T02:44:26;0.30;;;0.30;;
18702;SDS011;9481;48.796;9.210;2022-10-15T02:46:51;0.17;;;0.17;;
18702;SDS011;9481;48.796;9.210;2022-10-15T02:49:17;0.20;;;0.20;;
18702;SDS011;9481;48.796;9.210;2022-10-15T02:51:43;0.20;;;0.20;;
18702;SDS011;9481;48.796;9.210;2022-10-15T02:54:08;0.47;;;0.40;;
18702;SDS011;9481;48.796;9.210;2022-10-15T02:56:34;0.87;;;0.30;;
18702;SDS011;9481;48.796;9.210;2022-10-15T02:59:03;0.20;;;0.20;;
18702;SDS011;9481;48.796;9.210;2022-10-15T03:01:30;0.10;;;0.10;;
18702;SDS011;9481;48.796;9.210;2022-10-15T03:03:56;0.20;;;0.20;;
18702;SDS011;9481;48.796;9.210;2022-10-15T03:06:22;0.33;;;0.27;;
18702;SDS011;9481;48.796;9.210;2022-10-15T03:08:48;2.50;;;0.20;;
18702;SDS011;9481;48.796;9.210;2022-10-15T03:11:14;1.90;;;0.20;;
18702;SDS011;9481;48.796;9.210;2022-10-15T03:13:39;1.23;;;0.23;;
18702;SDS011;9481;48.796;9.210;2022-10-15T03:16:06;1.80;;;0.30;;
18702;SDS011;9481;48.796;9.210;2022-10-15T03:18:34;0.60;;;0.30;;
18702;SDS011;9481;48.796;9.210;2022-10-15T03:21:01;0.93;;;0.20;;
18702;SDS011;9481;48.796;9.210;2022-10-15T03:23:27;1.17;;;0.27;;
18702;SDS011;9481;48.796;9.210;2022-10-15T03:25:54;0.63;;;0.30;;
18702;SDS011;9481;48.796;9.210;2022-10-15T03:28:20;0.20;;;0.20;;
18702;SDS011;9481;48.796;9.210;2022-10-15T03:30:46;0.20;;;0.20;;
18702;SDS011;9481;48.796;9.210;2022-10-15T03:33:12;0.53;;;0.20;;
18702;SDS011;9481;48.796;9.210;2022-10-15T03:35:38;1.13;;;0.20;;
18702;SDS011;9481;48.796;9.210;2022-10-15T03:38:05;0.50;;;0.27;;
18702;SDS011;9481;48.796;9.210;2022-10-15T03:40:31;0.17;;;0.17;;
18702;SDS011;9481;48.796;9.210;2022-10-15T03:42:58;0.63;;;0.20;;
18702;SDS011;9481;48.796;9.210;2022-10-15T03:45:23;1.67;;;0.23;;
18702;SDS011;9481;48.796;9.210;2022-10-15T03:47:50;0.20;;;0.20;;
18702;SDS011;9481;48.796;9.210;2022-10-15T03:50:15;0.20;;;0.20;;
18702;SDS011;9481;48.796;9.210;2022-10-15T03:52:41;0.10;;;0.10;;
18702;SDS011;9481;48.796;9.210;2022-10-15T03:55:08;1.47;;;0.20;;
18702;SDS011;9481;48.796;9.210;2022-10-15T03:57:38;0.30;;;0.30;;
18702;SDS011;9481;48.796;9.210;2022-10-15T04:00:05;0.20;;;0.20;;
18702;SDS011;9481;48.796;9.210;2022-10-15T04:02:32;1.03;;;0.20;;
18702;SDS011;9481;48.796;9.210;2022-10-15T04:04:58;2.33;;;0.20;;
18702;SDS011;9481;48.796;9.210;2022-10-15T04:07:24;0.10;;;0.10;;
18702;SDS011;9481;48.796;9.210;2022-10-15T04:09:50;0.20;;;0.20;;
18702;SDS011;9481;48.796;9.210;2022-10-15T04:12:16;0.30;;;0.20;;
18702;SDS011;9481;48.796;9.210;2022-10-15T04:14:43;0.20;;;0.20;;
18702;SDS011;9481;48.796;9.210;2022-10-15T04:17:08;0.10;;;0.10;;
18702;SDS011;9481;48.796;9.210;2022-10-15T04:19:34;0.20;;;0.20;;
18702;SDS011;9481;48.796;9.210;2022-10-15T04:22:00;0.30;;;0.30;;
18702;SDS011;9481;48.796;9.210;2022-10-15T04:24:26;0.30;;;0.17;;
18702;SDS011;9481;48.796;9.210;2022-10-15T04:26:51;1.50;;;0.20;;
18702;SDS011;9481;48.796;9.210;2022-10-15T04:29:17;0.10;;;0.10;;
18702;SDS011;9481;48.796;9.210;2022-10-15T04:31:43;0.20;;;0.20;;
18702;SDS011;9481;48.796;9.210;2022-10-15T04:34:09;0.67;;;0.20;;
18702;SDS011;9481;48.796;9.210;2022-10-15T04:36:35;0.60;;;0.17;;
18702;SDS011;9481;48.796;9.210;2022-10-15T04:39:01;0.57;;;0.20;;
18702;SDS011;9481;48.796;9.210;2022-10-15T04:41:28;0.20;;;0.20;;
18702;SDS011;9481;48.796;9.210;2022-10-15T04:43:55;0.80;;;0.40;;
18702;SDS011;9481;48.796;9.210;2022-10-15T04:46:21;0.30;;;0.30;;
18702;SDS011;9481;48.796;9.210;2022-10-15T04:48:47;0.30;;;0.30;;
18702;SDS011;9481;48.796;9.210;2022-10-15T04:51:14;1.03;;;0.40;;
18702;SDS011;9481;48.796;9.210;2022-10-15T04:53:45;0.30;;;0.20;;
18702;SDS011;9481;48.796;9.210;2022-10-15T04:56:12;1.23;;;0.33;;
18702;SDS011;9481;48.796;9.210;2022-10-15T04:58:42;0.20;;;0.20;;
18702;SDS011;9481;48.796;9.210;2022-10-15T05:01:11;0.13;;;0.13;;
18702;SDS011;9481;48.796;9.210;2022-10-15T05:03:40;0.73;;;0.10;;
18702;SDS011;9481;48.796;9.210;2022-10-15T05:06:08;0.23;;;0.17;;
18702;SDS011;9481;48.796;9.210;2022-10-15T05:08:37;1.00;;;0.20;;
18702;SDS011;9481;48.796;9.210;2022-10-15T05:11:07;0.20;;;0.20;;
18702;SDS011;9481;48.796;9.210;2022-10-15T05:13:54;0.47;;;0.30;;
18702;SDS011;9481;48.796;9.210;2022-10-15T05:16:25;0.27;;;0.27;;
18702;SDS011;9481;48.796;9.210;2022-10-15T05:19:01;3.20;;;0.30;;
18702;SDS011;9481;48.796;9.210;2022-10-15T05:21:32;0.20;;;0.20;;
18702;SDS011;9481;48.796;9.210;2022-10-15T05:24:00;0.20;;;0.20;;
18702;SDS011;9481;48.796;9.210;2022-10-15T05:26:27;0.20;;;0.20;;
18702;SDS011;9481;48.796;9.210;2022-10-15T05:28:54;2.33;;;0.40;;
18702;SDS011;9481;48.796;9.210;2022-10-15T05:31:22;0.30;;;0.30;;
18702;SDS011;9481;48.796;9.210;2022-10-15T05:33:51;0.40;;;0.40;;
18702;SDS011;9481;48.796;9.210;2022-10-15T05:36:19;1.27;;;0.50;;
18702;SDS011;9481;48.796;9.210;2022-10-15T05:38:47;0.70;;;0.60;;
18702;SDS011;9481;48.796;9.210;2022-10-15T05:41:16;0.33;;;0.33;;
18702;SDS011;9481;48.796;9.210;2022-10-15T05:43:45;1.03;;;0.40;;
18702;SDS011;9481;48.796;9.210;2022-10-15T05:46:15;0.50;;;0.20;;
18702;SDS011;9481;48.796;9.210;2022-10-15T05:48:41;0.40;;;0.40;;
18702;SDS011;9481;48.796;9.210;2022-10-15T05:51:09;1.90;;;0.30;;
18702;SDS011;9481;48.796;9.210;2022-10-15T05:53:37;0.40;;;0.37;;
18702;SDS011;9481;48.796;9.210;2022-10-15T05:56:04;0.30;;;0.30;;
18702;SDS011;9481;48.796;9.210;2022-10-15T05:58:32;1.20;;;0.30;;
18702;SDS011;9481;48.796;9.210;2022-10-15T06:01:01;0.50;;;0.30;;
18702;SDS011;9481;48.796;9.210;2022-10-15T06:03:30;0.53;;;0.30;;
18702;SDS011;9481;48.796;9.210;2022-10-15T06:05:57;0.30;;;0.20;;
18702;SDS011;9481;48.796;9.210;2022-10-15T06:08:23;1.07;;;0.53;;
18702;SDS011;9481;48.796;9.210;2022-10-15T06:10:49;0.37;;;0.30;;
18702;SDS011;9481;48.796;9.210;2022-10-15T06:13:15;0.83;;;0.30;;
18702;SDS011;9481;48.796;9.210;2022-10-15T06:15:42;1.03;;;0.40;;
18702;SDS011;9481;48.796;9.210;2022-10-15T06:18:10;3.00;;;0.40;;
18702;SDS011;9481;48.796;9.210;2022-10-15T06:20:40;0.20;;;0.20;;
18702;SDS011;9481;48.796;9.210;2022-10-15T06:23:08;0.33;;;0.30;;
18702;SDS011;9481;48.796;9.210;2022-10-15T06:25:35;0.90;;;0.40;;
18702;SDS011;9481;48.796;9.210;2022-10-15T06:28:01;4.77;;;0.50;;
18702;SDS011;9481;48.796;9.210;2022-10-15T06:30:28;0.50;;;0.50;;
18702;SDS011;9481;48.796;9.210;2022-10-15T06:32:54;0.30;;;0.30;;
18702;SDS011;9481;48.796;9.210;2022-10-15T06:35:21;0.40;;;0.40;;
18702;SDS011;9481;48.796;9.210;2022-10-15T06:37:49;0.63;;;0.40;;
18702;SDS011;9481;48.796;9.210;2022-10-15T06:40:14;0.40;;;0.40;;
18702;SDS011;9481;48.796;9.210;2022-10-15T06:42:40;0.40;;;0.30;;
18702;SDS011;9481;48.796;9.210;2022-10-15T06:45:07;0.33;;;0.30;;
18702;SDS011;9481;48.796;9.210;2022-10-15T06:47:36;0.53;;;0.40;;
18702;SDS011;9481;48.796;9.210;2022-10-15T06:50:05;1.73;;;0.50;;
18702;SDS011;9481;48.796;9.210;2022-10-15T06:52:31;0.60;;;0.50;;
18702;SDS011;9481;48.796;9.210;2022-10-15T06:54:58;3.90;;;1.20;;
18702;SDS011;9481;48.796;9.210;2022-10-15T06:57:24;1.77;;;1.00;;
18702;SDS011;9481;48.796;9.210;2022-10-15T06:59:51;0.93;;;0.73;;
18702;SDS011;9481;48.796;9.210;2022-10-15T07:02:17;1.00;;;0.73;;
18702;SDS011;9481;48.796;9.210;2022-10-15T07:04:43;1.03;;;0.73;;
18702;SDS011;9481;48.796;9.210;2022-10-15T07:07:10;0.63;;;0.50;;
18702;SDS011;9481;48.796;9.210;2022-10-15T07:09:36;0.33;;;0.30;;
18702;SDS011;9481;48.796;9.210;2022-10-15T07:12:02;1.07;;;0.60;;
18702;SDS011;9481;48.796;9.210;2022-10-15T07:14:28;1.40;;;0.60;;
18702;SDS011;9481;48.796;9.210;2022-10-15T07:16:54;2.40;;;0.63;;
18702;SDS011;9481;48.796;9.210;2022-10-15T07:19:20;1.03;;;0.50;;
18702;SDS011;9481;48.796;9.210;2022-10-15T07:21:46;1.07;;;0.60;;
18702;SDS011;9481;48.796;9.210;2022-10-15T07:24:12;0.47;;;0.43;;
18702;SDS011;9481;48.796;9.210;2022-10-15T07:26:38;1.23;;;0.50;;
18702;SDS011;9481;48.796;9.210;2022-10-15T07:29:03;1.57;;;0.60;;
18702;SDS011;9481;48.796;9.210;2022-10-15T07:31:29;1.43;;;0.40;;
18702;SDS011;9481;48.796;9.210;2022-10-15T07:33:55;1.17;;;0.50;;
18702;SDS011;9481;48.796;9.210;2022-10-15T07:36:21;1.93;;;0.40;;
18702;SDS011;9481;48.796;9.210;2022-10-15T07:38:49;0.60;;;0.60;;
18702;SDS011;9481;48.796;9.210;2022-10-15T07:41:15;1.30;;;0.40;;
18702;SDS011;9481;48.796;9.210;2022-10-15T07:43:41;0.90;;;0.50;;
18702;SDS011;9481;48.796;9.210;2022-10-15T07:46:07;0.83;;;0.73;;
18702;SDS011;9481;48.796;9.210;2022-10-15T07:48:33;3.03;;;1.03;;
18702;SDS011;9481;48.796;9.210;2022-10-15T07:51:00;2.30;;;0.90;;
18702;SDS011;9481;48.796;9.210;2022-10-15T07:53:30;1.87;;;0.93;;
18702;SDS011;9481;48.796;9.210;2022-10-15T07:55:58;0.50;;;0.50;;
18702;SDS011;9481;48.796;9.210;2022-10-15T07:58:26;2.00;;;0.70;;
18702;SDS011;9481;48.796;9.210;2022-10-15T08:00:54;6.87;;;0.90;;
18702;SDS011;9481;48.796;9.210;2022-10-15T08:03:23;0.90;;;0.40;;
18702;SDS011;9481;48.796;9.210;2022-10-15T08:05:48;1.70;;;0.40;;
18702;SDS011;9481;48.796;9.210;2022-10-15T08:08:17;0.77;;;0.50;;
18702;SDS011;9481;48.796;9.210;2022-10-15T08:10:44;0.67;;;0.40;;
18702;SDS011;9481;48.796;9.210;2022-10-15T08:13:11;0.50;;;0.50;;
18702;SDS011;9481;48.796;9.210;2022-10-15T08:15:37;1.87;;;0.70;;
18702;SDS011;9481;48.796;9.210;2022-10-15T08:18:04;0.40;;;0.40;;
18702;SDS011;9481;48.796;9.210;2022-10-15T08:20:31;2.53;;;0.40;;
18702;SDS011;9481;48.796;9.210;2022-10-15T08:22:56;1.10;;;0.90;;
18702;SDS011;9481;48.796;9.210;2022-10-15T08:25:22;0.40;;;0.40;;
18702;SDS011;9481;48.796;9.210;2022-10-15T08:27:48;0.67;;;0.57;;
18702;SDS011;9481;48.796;9.210;2022-10-15T08:30:14;1.27;;;0.60;;
18702;SDS011;9481;48.796;9.210;2022-10-15T08:32:40;0.77;;;0.60;;
18702;SDS011;9481;48.796;9.210;2022-10-15T08:35:05;0.87;;;0.60;;
18702;SDS011;9481;48.796;9.210;2022-10-15T08:37:32;0.77;;;0.63;;
18702;SDS011;9481;48.796;9.210;2022-10-15T08:39:57;1.50;;;0.83;;
18702;SDS011;9481;48.796;9.210;2022-10-15T08:42:41;1.17;;;0.83;;
18702;SDS011;9481;48.796;9.210;2022-10-15T08:45:13;2.40;;;0.90;;
18702;SDS011;9481;48.796;9.210;2022-10-15T08:47:49;0.70;;;0.70;;
18702;SDS011;9481;48.796;9.210;2022-10-15T08:50:27;1.00;;;0.90;;
18702;SDS011;9481;48.796;9.210;2022-10-15T08:53:04;0.70;;;0.70;;
18702;SDS011;9481;48.796;9.210;2022-10-15T08:55:34;2.10;;;1.03;;
18702;SDS011;9481;48.796;9.210;2022-10-15T08:58:11;0.57;;;0.57;;
18702;SDS011;9481;48.796;9.210;2022-10-15T09:01:00;0.83;;;0.30;;
18702;SDS011;9481;48.796;9.210;2022-10-15T09:03:35;0.60;;;0.47;;
18702;SDS011;9481;48.796;9.210;2022-10-15T09:11:43;1.23;;;0.50;;
18702;SDS011;9481;48.796;9.210;2022-10-15T09:14:17;0.40;;;0.40;;
18702;SDS011;9481;48.796;9.210;2022-10-15T09:16:50;1.90;;;0.40;;
18702;SDS011;9481;48.796;9.210;2022-10-15T09:19:19;0.20;;;0.20;;
18702;SDS011;9481;48.796;9.210;2022-10-15T09:21:48;0.87;;;0.30;;
18702;SDS011;9481;48.796;9.210;2022-10-15T09:24:18;0.27;;;0.27;;
18702;SDS011;9481;48.796;9.210;2022-10-15T09:30:03;0.40;;;0.40;;
18702;SDS011;9481;48.796;9.210;2022-10-15T09:35:41;1.37;;;0.40;;
18702;SDS011;9481;48.796;9.210;2022-10-15T09:44:15;0.97;;;0.43;;
18702;SDS011;9481;48.796;9.210;2022-10-15T09:46:46;0.37;;;0.37;;
18702;SDS011;9481;48.796;9.210;2022-10-15T09:49:15;0.73;;;0.40;;
18702;SDS011;9481;48.796;9.210;2022-10-15T09:51:56;0.30;;;0.30;;
18702;SDS011;9481;48.796;9.210;2022-10-15T09:57:34;0.50;;;0.40;;
18702;SDS011;9481;48.796;9.210;2022-10-15T10:00:04;0.30;;;0.30;;
18702;SDS011;9481;48.796;9.210;2022-10-15T10:02:33;0.40;;;0.40;;
18702;SDS011;9481;48.796;9.210;2022-10-15T10:10:58;0.30;;;0.30;;
18702;SDS011;9481;48.796;9.210;2022-10-15T10:13:31;1.00;;;0.50;;
18702;SDS011;9481;48.796;9.210;2022-10-15T10:16:02;1.20;;;0.50;;
18702;SDS011;9481;48.796;9.210;2022-10-15T10:18:32;0.40;;;0.40;;
18702;SDS011;9481;48.796;9.210;2022-10-15T10:21:02;0.97;;;0.70;;
18702;SDS011;9481;48.796;9.210;2022-10-15T10:23:55;0.77;;;0.60;;
18702;SDS011;9481;48.796;9.210;2022-10-15T10:26:59;1.00;;;0.50;;
18702;SDS011;9481;48.796;9.210;2022-10-15T10:29:26;1.30;;;0.60;;
18702;SDS011;9481;48.796;9.210;2022-10-15T10:31:55;0.47;;;0.43;;
18702;SDS011;9481;48.796;9.210;2022-10-15T10:34:30;0.70;;;0.43;;
18702;SDS011;9481;48.796;9.210;2022-10-15T10:37:01;1.33;;;0.50;;
18702;SDS011;9481;48.796;9.210;2022-10-15T10:39:29;0.97;;;0.40;;
18702;SDS011;9481;48.796;9.210;2022-10-15T10:42:05;1.87;;;0.70;;
18702;SDS011;9481;48.796;9.210;2022-10-15T10:44:49;2.07;;;0.50;;
18702;SDS011;9481;48.796;9.210;2022-10-15T10:47:21;1.97;;;0.50;;
18702;SDS011;9481;48.796;9.210;2022-10-15T10:49:49;1.80;;;0.50;;
18702;SDS011;9481;48.796;9.210;2022-10-15T10:52:31;1.43;;;0.43;;
18702;SDS011;9481;48.796;9.210;2022-10-15T10:55:02;0.60;;;0.60;;
18702;SDS011;9481;48.796;9.210;2022-10-15T10:57:56;2.27;;;0.70;;
18702;SDS011;9481;48.796;9.210;2022-10-15T11:00:34;1.80;;;0.50;;
18702;SDS011;9481;48.796;9.210;2022-10-15T11:03:05;0.93;;;0.67;;
18702;SDS011;9481;48.796;9.210;2022-10-15T11:06:00;1.43;;;0.43;;
18702;SDS011;9481;48.796;9.210;2022-10-15T11:09:14;1.90;;;0.60;;
18702;SDS011;9481;48.796;9.210;2022-10-15T11:12:00;3.77;;;0.70;;
18702;SDS011;9481;48.796;9.210;2022-10-15T11:21:00;0.87;;;0.60;;
18702;SDS011;9481;48.796;9.210;2022-10-15T11:24:14;0.90;;;0.57;;
18702;SDS011;9481;48.796;9.210;2022-10-15T11:33:19;1.60;;;0.70;;
18702;SDS011;9481;48.796;9.210;2022-10-15T11:39:28;0.77;;;0.60;;
18702;SDS011;9481;48.796;9.210;2022-10-15T11:42:24;1.37;;;0.50;;
18702;SDS011;9481;48.796;9.210;2022-10-15T11:48:33;5.23;;;0.90;;
18702;SDS011;9481;48.796;9.210;2022-10-15T11:54:03;1.37;;;0.50;;
18702;SDS011;9481;48.796;9.210;2022-10-15T11:56:47;3.33;;;0.80;;
18702;SDS011;9481;48.796;9.210;2022-10-15T12:05:00;0.47;;;0.47;;
18702;SDS011;9481;48.796;9.210;2022-10-15T12:07:38;1.87;;;0.40;;
18702;SDS011;9481;48.796;9.210;2022-10-15T12:12:55;0.40;;;0.40;;
18702;SDS011;9481;48.796;9.210;2022-10-15T12:15:32;4.27;;;0.57;;
18702;SDS011;9481;48.796;9.210;2022-10-15T12:18:16;1.03;;;0.57;;
18702;SDS011;9481;48.796;9.210;2022-10-15T12:20:49;1.03;;;0.60;;
18702;SDS011;9481;48.796;9.210;2022-10-15T12:26:25;0.67;;;0.67;;
18702;SDS011;9481;48.796;9.210;2022-10-15T12:28:58;0.97;;;0.50;;
18702;SDS011;9481;48.796;9.210;2022-10-15T12:31:44;2.17;;;0.40;;
18702;SDS011;9481;48.796;9.210;2022-10-15T12:34:27;2.33;;;0.50;;
18702;SDS011;9481;48.796;9.210;2022-10-15T12:37:04;1.27;;;0.50;;
18702;SDS011;9481;48.796;9.210;2022-10-15T12:39:42;2.43;;;0.67;;
18702;SDS011;9481;48.796;9.210;2022-10-15T12:42:42;0.70;;;0.50;;
18702;SDS011;9481;48.796;9.210;2022-10-15T12:45:05;0.50;;;0.50;;
18702;SDS011;9481;48.796;9.210;2022-10-15T12:50:25;1.60;;;0.60;;
18702;SDS011;9481;48.796;9.210;2022-10-15T12:52:55;1.30;;;0.50;;
18702;SDS011;9481;48.796;9.210;2022-10-15T12:57:57;2.73;;;0.70;;
18702;SDS011;9481;48.796;9.210;2022-10-15T13:00:44;1.63;;;0.60;;
18702;SDS011;9481;48.796;9.210;2022-10-15T13:06:12;1.27;;;0.77;;
18702;SDS011;9481;48.796;9.210;2022-10-15T13:08:55;0.70;;;0.60;;
18702;SDS011;9481;48.796;9.210;2022-10-15T13:11:44;0.50;;;0.50;;
18702;SDS011;9481;48.796;9.210;2022-10-15T13:14:37;0.53;;;0.53;;
18702;SDS011;9481;48.796;9.210;2022-10-15T13:17:13;0.90;;;0.63;;
18702;SDS011;9481;48.796;9.210;2022-10-15T13:22:25;2.57;;;0.57;;
18702;SDS011;9481;48.796;9.210;2022-10-15T13:24:57;1.53;;;0.60;;
18702;SDS011;9481;48.796;9.210;2022-10-15T13:30:10;0.83;;;0.73;;
18702;SDS011;9481;48.796;9.210;2022-10-15T13:32:44;0.67;;;0.57;;
18702;SDS011;9481;48.796;9.210;2022-10-15T13:35:20;1.97;;;0.80;;
18702;SDS011;9481;48.796;9.210;2022-10-15T13:37:53;1.53;;;0.93;;
18702;SDS011;9481;48.796;9.210;2022-10-15T13:40:25;0.50;;;0.40;;
18702;SDS011;9481;48.796;9.210;2022-10-15T13:43:36;2.23;;;0.60;;
18702;SDS011;9481;48.796;9.210;2022-10-15T13:45:49;3.33;;;0.70;;
18702;SDS011;9481;48.796;9.210;2022-10-15T13:48:20;0.90;;;0.67;;
18702;SDS011;9481;48.796;9.210;2022-10-15T13:51:00;0.70;;;0.60;;
18702;SDS011;9481;48.796;9.210;2022-10-15T13:53:30;1.67;;;0.73;;
18702;SDS011;9481;48.796;9.210;2022-10-15T13:58:52;1.40;;;0.77;;
18702;SDS011;9481;48.796;9.210;2022-10-15T14:01:20;2.83;;;1.00;;
18702;SDS011;9481;48.796;9.210;2022-10-15T14:03:52;2.17;;;0.60;;
18702;SDS011;9481;48.796;9.210;2022-10-15T14:09:00;4.77;;;0.70;;
18702;SDS011;9481;48.796;9.210;2022-10-15T14:11:43;2.23;;;0.80;;
18702;SDS011;9481;48.796;9.210;2022-10-15T14:17:09;4.73;;;0.67;;
18702;SDS011;9481;48.796;9.210;2022-10-15T14:19:57;1.80;;;0.70;;
18702;SDS011;9481;48.796;9.210;2022-10-15T14:22:27;0.97;;;0.60;;
18702;SDS011;9481;48.796;9.210;2022-10-15T14:24:54;0.60;;;0.60;;
18702;SDS011;9481;48.796;9.210;2022-10-15T14:27:24;1.90;;;0.50;;
18702;SDS011;9481;48.796;9.210;2022-10-15T14:29:53;1.43;;;0.70;;
18702;SDS011;9481;48.796;9.210;2022-10-15T14:32:29;2.30;;;0.50;;
18702;SDS011;9481;48.796;9.210;2022-10-15T14:35:29;1.27;;;0.50;;
18702;SDS011;9481;48.796;9.210;2022-10-15T14:38:13;0.93;;;0.60;;
18702;SDS011;9481;48.796;9.210;2022-10-15T14:40:40;1.37;;;0.70;;
18702;SDS011;9481;48.796;9.210;2022-10-15T14:43:44;0.73;;;0.60;;
18702;SDS011;9481;48.796;9.210;2022-10-15T14:46:13;1.27;;;0.70;;
18702;SDS011;9481;48.796;9.210;2022-10-15T14:48:43;0.80;;;0.80;;
18702;SDS011;9481;48.796;9.210;2022-10-15T14:51:14;2.73;;;0.70;;
18702;SDS011;9481;48.796;9.210;2022-10-15T14:53:48;1.03;;;0.63;;
18702;SDS011;9481;48.796;9.210;2022-10-15T14:56:20;0.70;;;0.70;;
18702;SDS011;9481;48.796;9.210;2022-10-15T14:58:54;1.23;;;0.70;;
18702;SDS011;9481;48.796;9.210;2022-10-15T15:01:22;1.40;;;0.67;;
18702;SDS011;9481;48.796;9.210;2022-10-15T15:03:51;0.57;;;0.50;;
18702;SDS011;9481;48.796;9.210;2022-10-15T15:06:19;1.30;;;0.60;;
18702;SDS011;9481;48.796;9.210;2022-10-15T15:08:45;1.23;;;0.70;;
18702;SDS011;9481;48.796;9.210;2022-10-15T15:11:12;1.97;;;0.70;;
18702;SDS011;9481;48.796;9.210;2022-10-15T15:13:49;0.90;;;0.67;;
18702;SDS011;9481;48.796;9.210;2022-10-15T15:16:16;0.90;;;0.53;;
18702;SDS011;9481;48.796;9.210;2022-10-15T15:18:43;2.90;;;0.90;;
18702;SDS011;9481;48.796;9.210;2022-10-15T15:21:15;0.83;;;0.70;;
18702;SDS011;9481;48.796;9.210;2022-10-15T15:23:46;2.00;;;1.33;;
18702;SDS011;9481;48.796;9.210;2022-10-15T15:26:12;1.63;;;1.13;;
18702;SDS011;9481;48.796;9.210;2022-10-15T15:28:38;1.83;;;1.03;;
18702;SDS011;9481;48.796;9.210;2022-10-15T15:31:09;1.10;;;0.80;;
18702;SDS011;9481;48.796;9.210;2022-10-15T15:33:40;1.10;;;0.70;;
18702;SDS011;9481;48.796;9.210;2022-10-15T15:36:08;2.70;;;0.77;;
18702;SDS011;9481;48.796;9.210;2022-10-15T15:38:38;0.50;;;0.50;;
18702;SDS011;9481;48.796;9.210;2022-10-15T15:41:17;1.20;;;0.70;;
18702;SDS011;9481;48.796;9.210;2022-10-15T15:43:46;5.30;;;3.73;;
18702;SDS011;9481;48.796;9.210;2022-10-15T15:46:13;4.10;;;3.33;;
18702;SDS011;9481;48.796;9.210;2022-10-15T15:48:39;3.80;;;3.50;;
18702;SDS011;9481;48.796;9.210;2022-10-15T15:53:48;7.10;;;2.10;;
18702;SDS011;9481;48.796;9.210;2022-10-15T15:56:15;1.03;;;1.00;;
18702;SDS011;9481;48.796;9.210;2022-10-15T15:58:41;0.90;;;0.77;;
18702;SDS011;9481;48.796;9.210;2022-10-15T16:01:06;0.70;;;0.60;;
18702;SDS011;9481;48.796;9.210;2022-10-15T16:03:32;0.80;;;0.50;;
18702;SDS011;9481;48.796;9.210;2022-10-15T16:05:58;0.60;;;0.50;;
18702;SDS011;9481;48.796;9.210;2022-10-15T16:08:23;1.13;;;0.53;;
18702;SDS011;9481;48.796;9.210;2022-10-15T16:10:49;2.40;;;0.40;;
18702;SDS011;9481;48.796;9.210;2022-10-15T16:13:15;0.33;;;0.33;;
18702;SDS011;9481;48.796;9.210;2022-10-15T16:15:40;0.60;;;0.60;;
18702;SDS011;9481;48.796;9.210;2022-10-15T16:18:06;2.57;;;1.60;;
18702;SDS011;9481;48.796;9.210;2022-10-15T16:20:33;3.70;;;1.10;;
18702;SDS011;9481;48.796;9.210;2022-10-15T16:23:03;4.23;;;1.20;;
18702;SDS011;9481;48.796;9.210;2022-10-15T16:25:29;1.90;;;1.73;;
18702;SDS011;9481;48.796;9.210;2022-10-15T16:27:55;1.13;;;1.03;;
18702;SDS011;9481;48.796;9.210;2022-10-15T16:30:23;1.30;;;1.10;;
18702;SDS011;9481;48.796;9.210;2022-10-15T16:32:49;1.10;;;1.00;;
18702;SDS011;9481;48.796;9.210;2022-10-15T16:35:14;3.47;;;0.80;;
18702;SDS011;9481;48.796;9.210;2022-10-15T16:37:40;1.83;;;1.00;;
18702;SDS011;9481;48.796;9.210;2022-10-15T16:40:06;1.13;;;0.77;;
18702;SDS011;9481;48.796;9.210;2022-10-15T16:42:32;2.57;;;0.70;;
18702;SDS011;9481;48.796;9.210;2022-10-15T16:44:58;2.80;;;0.60;;
18702;SDS011;9481;48.796;9.210;2022-10-15T16:47:23;2.00;;;1.40;;
18702;SDS011;9481;48.796;9.210;2022-10-15T16:49:49;2.80;;;1.27;;
18702;SDS011;9481;48.796;9.210;2022-10-15T16:52:15;1.13;;;0.90;;
18702;SDS011;9481;48.796;9.210;2022-10-15T16:54:40;1.47;;;0.90;;
18702;SDS011;9481;48.796;9.210;2022-10-15T16:57:06;1.43;;;0.67;;
18702;SDS011;9481;48.796;9.210;2022-10-15T16:59:32;1.03;;;0.87;;
18702;SDS011;9481;48.796;9.210;2022-10-15T17:01:57;0.73;;;0.70;;
18702;SDS011;9481;48.796;9.210;2022-10-15T17:04:25;1.07;;;0.60;;
18702;SDS011;9481;48.796;9.210;2022-10-15T17:06:50;2.30;;;0.80;;
18702;SDS011;9481;48.796;9.210;2022-10-15T17:09:16;1.20;;;0.90;;